Aérodrome :
LOGIN :

S'inscrire | Disclaimer

   EN    FR    IT 

 










Légende :    VFR   VFR Marginal   IFR   IFR Intensif   IFR Très Intensif
Visi : 
Plafond : 
>= 8 km
>= 3000ft
5 à 8 km
1000 à 3000 ft
1500m à 5 km
500 à 1000 ft
800 à 1500m
200 à 500 ft
< 800m
< 200 ft
Symboles :   Orages  Brouillard  Fortes neiges  Fortes précipitations  Vent > 20 kt
SIGMETs :   Divers  Orages  Givrage  Turbulence  Onde Orograph.  Cendres Volcan.






- Altitude de l'aérodrome : 388 ft
- Code IATA : QYR


LFQB - Troyes Barberey

DERNIER METAR :
  • 150130Z AUTO 24018KT 7000 -DZ SCT014 BKN019 BKN027 11/09 Q1001

METARs EXPIRÉS :
  • 150100Z AUTO 22011KT 9999 SCT029 SCT037 BKN047 10/09 Q1001
  • 150030Z AUTO 19010KT 9999 FEW019/// BKN035/// BKN043/// ///TCU 09/09 Q1001
  • 150000Z AUTO 18004KT 6000 -RA OVC021 09/09 Q1001
  • 142330Z AUTO 18007KT 4500 -RA BR FEW019 OVC025 09/09 Q1002
  • 142300Z AUTO 19009KT 4200 -RA BR BKN030/// OVC037/// ///TCU 09/09 Q1002

TAF N/A



MET'MAP, la Météo Aéronautique d'un coup d'oeil ! - Copyright ORBIFLY Décembre 2007 - Disclaimer

ORBIFLY MET'MAP TEAM :

Programmation & Développement : Alexandra Zaïnal
Sur une idée originale de : Baudouin d'Aumeries
Assistance à la programmation : Marc-Olivier Méhu
Soutien technique & logistique : Manuel Goepfert

Contact : metmap@orbifly.com




SOURCES & CREDITS :

   NOAA